Time;durP1;ratioP1;P1;durP2;ratioP2;P2;SDS_P1;SDS_P2;PMS_P1;PMS_P2;Temp;Humidity;BMP_temperature;BMP_pressure;BME280_temperature;BME280_humidity;BME280_pressure;Samples;Min_cycle;Max_cycle;Signal;HPM_P1;HPM_P2
2022/10/17 00:01:10;;;;;;;7.45;3.53;;;12.00;90.50;;;;;;5033777;28;20048;-80
2022/10/17 00:03:36;;;;;;;10.88;4.28;;;12.00;90.20;;;;;;5050211;28;20036;-79
2022/10/17 00:06:07;;;;;;;10.27;3.65;;;12.00;90.20;;;;;;5050731;28;20471;-77
2022/10/17 00:08:34;;;;;;;9.48;3.67;;;12.00;90.10;;;;;;5035809;28;20200;-80
2022/10/17 00:11:05;;;;;;;10.27;4.07;;;12.00;90.10;;;;;;5054941;28;20081;-77
2022/10/17 00:13:31;;;;;;;15.30;4.40;;;12.00;90.00;;;;;;5054990;28;20106;-78
2022/10/17 00:15:57;;;;;;;8.90;4.25;;;12.10;90.30;;;;;;5054742;28;20489;-79
2022/10/17 00:18:23;;;;;;;13.75;4.05;;;12.10;90.40;;;;;;5054694;28;20045;-79
2022/10/17 00:20:50;;;;;;;11.25;3.88;;;12.10;90.70;;;;;;5021590;28;20043;-81
2022/10/17 00:23:16;;;;;;;13.57;4.28;;;12.20;90.60;;;;;;5054582;28;20498;-80
2022/10/17 00:25:41;;;;;;;14.75;3.80;;;12.20;90.50;;;;;;5037897;28;20045;-78
2022/10/17 00:28:11;;;;;;;10.52;3.92;;;12.30;90.40;;;;;;5054716;28;20059;-80
2022/10/17 00:30:37;;;;;;;8.68;3.50;;;12.40;90.90;;;;;;5038004;28;20116;-78
2022/10/17 00:33:03;;;;;;;7.30;3.60;;;12.40;90.70;;;;;;5054660;28;20033;-77
2022/10/17 00:35:30;;;;;;;8.95;3.60;;;12.40;90.50;;;;;;5054342;28;20041;-77
2022/10/17 00:37:55;;;;;;;8.90;3.70;;;12.50;90.60;;;;;;5054274;28;20068;-80
2022/10/17 00:40:22;;;;;;;13.07;3.95;;;12.50;90.70;;;;;;5054229;28;20080;-79
2022/10/17 00:42:50;;;;;;;9.18;3.83;;;12.50;90.90;;;;;;5054280;28;20037;-81
2022/10/17 00:45:26;;;;;;;11.27;4.30;;;12.50;90.70;;;;;;5037835;28;20052;-81
2022/10/17 00:48:04;;;;;;;10.90;3.65;;;12.60;90.60;;;;;;5054077;28;20512;-77
2022/10/17 00:50:30;;;;;;;8.60;3.70;;;12.60;90.40;;;;;;5037392;28;20115;-80
2022/10/17 00:53:01;;;;;;;9.15;3.75;;;12.60;90.50;;;;;;5037480;28;20068;-77
2022/10/17 00:55:32;;;;;;;6.53;3.10;;;12.60;90.50;;;;;;5054012;28;20037;-81
2022/10/17 00:58:01;;;;;;;10.93;4.15;;;12.70;90.60;;;;;;5054650;28;20044;-78
2022/10/17 01:00:27;;;;;;;9.57;3.78;;;12.70;90.70;;;;;;5037825;28;20528;-81
2022/10/17 01:02:53;;;;;;;14.20;5.25;;;12.70;90.80;;;;;;5037904;28;20482;-81
2022/10/17 01:05:19;;;;;;;11.13;4.80;;;12.70;90.60;;;;;;5054228;28;20048;-78
2022/10/17 01:07:47;;;;;;;11.68;5.53;;;12.70;90.60;;;;;;5054601;28;20166;-80
2022/10/17 01:10:13;;;;;;;8.50;4.55;;;12.70;90.60;;;;;;5038022;28;20044;-77
2022/10/17 01:13:11;;;;;;;8.82;5.20;;;12.80;90.70;;;;;;5054148;28;20041;-81
2022/10/17 01:15:52;;;;;;;10.90;5.15;;;12.80;90.80;;;;;;5054128;28;20115;-81
2022/10/17 01:18:24;;;;;;;8.60;4.82;;;12.90;91.00;;;;;;5054435;28;20060;-78
2022/10/17 01:21:06;;;;;;;12.93;5.88;;;12.90;90.80;;;;;;5053127;28;20486;-75
2022/10/17 01:23:56;;;;;;;10.13;5.30;;;12.90;91.10;;;;;;5054508;28;20048;-78
2022/10/17 01:26:49;;;;;;;8.52;4.90;;;12.90;91.00;;;;;;5037363;28;20084;-82
2022/10/17 01:29:30;;;;;;;9.52;4.85;;;12.90;91.20;;;;;;5053872;28;20095;-79
2022/10/17 01:32:04;;;;;;;17.60;5.65;;;12.90;90.90;;;;;;5053655;28;20044;-79
2022/10/17 01:34:38;;;;;;;12.48;5.68;;;12.90;90.90;;;;;;5053506;28;20045;-78
2022/10/17 01:37:26;;;;;;;9.90;4.93;;;12.90;91.10;;;;;;5037158;28;20095;-78
2022/10/17 01:40:02;;;;;;;8.98;6.13;;;12.90;90.90;;;;;;5053994;28;20424;-80
2022/10/17 01:42:37;;;;;;;14.40;5.70;;;12.90;90.90;;;;;;5053824;28;20041;-78
2022/10/17 01:45:40;;;;;;;11.95;5.47;;;12.90;90.90;;;;;;5053815;28;20122;-77
2022/10/17 01:48:15;;;;;;;13.90;6.60;;;12.80;90.90;;;;;;5036783;28;20045;-80
2022/10/17 01:50:46;;;;;;;15.80;6.35;;;12.80;90.80;;;;;;5036714;28;20110;-79
2022/10/17 01:53:38;;;;;;;12.10;6.50;;;12.80;91.00;;;;;;5036821;28;20049;-75
2022/10/17 01:56:08;;;;;;;11.60;6.47;;;12.80;91.10;;;;;;5034348;28;20045;-79
2022/10/17 01:58:42;;;;;;;10.77;7.25;;;12.80;91.10;;;;;;5053588;28;20470;-79
2022/10/17 02:01:11;;;;;;;10.25;6.70;;;12.80;91.20;;;;;;5053462;28;20374;-78
2022/10/17 02:03:42;;;;;;;11.73;7.03;;;12.70;91.20;;;;;;5053143;28;20107;-78
2022/10/17 02:06:08;;;;;;;10.23;7.10;;;12.80;91.20;;;;;;5036474;28;20045;-78
2022/10/17 02:08:46;;;;;;;12.80;7.03;;;12.80;91.40;;;;;;5053217;28;20095;-79
2022/10/17 02:11:25;;;;;;;10.23;6.85;;;12.80;91.40;;;;;;5036477;28;20044;-78
2022/10/17 02:14:06;;;;;;;11.65;6.90;;;12.70;91.40;;;;;;5053042;28;20049;-79
2022/10/17 02:16:57;;;;;;;11.45;7.03;;;12.70;91.40;;;;;;5053129;28;20036;-79
2022/10/17 02:19:41;;;;;;;13.30;7.07;;;12.60;91.40;;;;;;5052970;28;20486;-80
2022/10/17 02:22:20;;;;;;;12.07;7.07;;;12.60;91.60;;;;;;5036430;28;20084;-80
2022/10/17 02:25:11;;;;;;;9.27;5.72;;;12.60;91.60;;;;;;5053066;28;20110;-78
2022/10/17 02:27:47;;;;;;;14.43;7.63;;;12.60;91.60;;;;;;5052932;28;20076;-79
2022/10/17 02:30:28;;;;;;;11.23;6.43;;;12.60;91.60;;;;;;5052983;28;20094;-80
2022/10/17 02:33:24;;;;;;;15.55;7.82;;;12.60;91.50;;;;;;5052993;28;20123;-78
2022/10/17 02:35:55;;;;;;;15.73;8.60;;;12.50;91.70;;;;;;5052631;28;20037;-76
2022/10/17 02:38:24;;;;;;;8.70;7.25;;;12.50;92.00;;;;;;5052722;28;20040;-81
2022/10/17 02:40:51;;;;;;;11.57;7.75;;;12.50;92.00;;;;;;5043304;28;20558;-81
2022/10/17 02:43:18;;;;;;;13.95;8.25;;;12.60;92.10;;;;;;5056248;28;20455;-79
2022/10/17 02:45:46;;;;;;;14.77;7.82;;;12.60;92.20;;;;;;5022909;28;20041;-81
2022/10/17 02:48:34;;;;;;;8.88;6.38;;;12.50;92.10;;;;;;5072524;28;20044;-82
2022/10/17 02:51:30;;;;;;;11.13;7.85;;;12.50;92.10;;;;;;5061701;28;20067;-78
2022/10/17 02:54:20;;;;;;;10.23;7.50;;;12.60;92.10;;;;;;5048997;28;20143;-77
2022/10/17 02:57:06;;;;;;;11.75;7.63;;;12.50;92.20;;;;;;5072191;28;20075;-81
2022/10/17 02:59:35;;;;;;;10.23;7.60;;;12.60;92.30;;;;;;5072266;28;20516;-81
2022/10/17 03:02:05;;;;;;;15.90;10.25;;;12.60;92.30;;;;;;5072436;28;20041;-81
2022/10/17 03:04:32;;;;;;;16.77;11.02;;;12.60;92.60;;;;;;5055500;28;20032;-79
2022/10/17 03:06:57;;;;;;;14.98;11.48;;;12.60;93.20;;;;;;5072310;28;20044;-77
2022/10/17 03:09:23;;;;;;;14.23;10.73;;;12.70;92.60;;;;;;5072257;28;20036;-81
2022/10/17 03:11:49;;;;;;;14.88;11.80;;;12.70;92.30;;;;;;5055428;28;20071;-80
2022/10/17 03:14:15;;;;;;;17.23;12.40;;;12.80;93.00;;;;;;5038694;28;20048;-82
2022/10/17 03:16:41;;;;;;;16.13;12.40;;;12.80;93.00;;;;;;5071713;28;20040;-80
2022/10/17 03:19:06;;;;;;;16.75;12.43;;;12.80;93.40;;;;;;5055253;28;20045;-78
2022/10/17 03:21:32;;;;;;;14.45;12.18;;;12.80;93.30;;;;;;5071996;28;20040;-80
2022/10/17 03:23:58;;;;;;;15.40;11.45;;;12.80;93.60;;;;;;5055538;28;20428;-79
2022/10/17 03:26:24;;;;;;;16.75;13.55;;;12.80;93.90;;;;;;5038856;28;20040;-78
2022/10/17 03:28:49;;;;;;;16.27;13.05;;;12.80;94.10;;;;;;5072002;28;20075;-77
2022/10/17 03:31:16;;;;;;;14.55;11.90;;;12.90;94.50;;;;;;5071805;28;20036;-79
2022/10/17 03:33:42;;;;;;;22.40;12.73;;;12.90;94.20;;;;;;5071859;28;20489;-80
2022/10/17 03:36:10;;;;;;;20.70;12.98;;;12.90;93.90;;;;;;5022243;28;20040;-77
2022/10/17 03:38:36;;;;;;;16.40;12.60;;;12.80;94.00;;;;;;5071713;28;20047;-78
2022/10/17 03:41:02;;;;;;;17.02;14.02;;;12.80;94.60;;;;;;5071382;28;20047;-78
2022/10/17 03:43:28;;;;;;;19.80;13.35;;;12.80;94.40;;;;;;5072691;28;20044;-79
2022/10/17 03:45:56;;;;;;;19.65;13.35;;;12.80;94.50;;;;;;5042523;28;20047;-80
2022/10/17 03:48:22;;;;;;;18.67;14.00;;;12.80;94.60;;;;;;5075602;28;20082;-78
2022/10/17 03:50:48;;;;;;;17.98;13.25;;;12.70;94.70;;;;;;5058780;28;20060;-80
2022/10/17 03:53:13;;;;;;;17.27;13.75;;;12.70;94.60;;;;;;5059042;28;20100;-78
2022/10/17 03:55:39;;;;;;;20.35;15.75;;;12.70;94.70;;;;;;5075859;28;20123;-77
2022/10/17 03:58:05;;;;;;;18.27;14.85;;;12.60;95.00;;;;;;5059024;28;20041;-79
2022/10/17 04:00:31;;;;;;;20.50;15.05;;;12.70;94.90;;;;;;5075531;28;20051;-77
2022/10/17 04:02:57;;;;;;;17.45;13.60;;;12.60;94.80;;;;;;5075465;28;20051;-78
2022/10/17 04:05:23;;;;;;;17.63;14.90;;;12.60;95.30;;;;;;5075544;28;20473;-79
2022/10/17 04:07:49;;;;;;;20.50;16.90;;;12.70;95.10;;;;;;5075279;28;20047;-81
2022/10/17 04:10:15;;;;;;;18.77;15.20;;;12.70;95.10;;;;;;5075539;28;20119;-78
2022/10/17 04:12:40;;;;;;;18.35;14.80;;;12.70;95.30;;;;;;5075233;28;20072;-79
2022/10/17 04:15:07;;;;;;;23.17;16.63;;;12.70;95.60;;;;;;5042412;28;20076;-80
2022/10/17 04:17:32;;;;;;;24.63;18.27;;;12.70;95.30;;;;;;5058610;28;20546;-77
2022/10/17 04:19:58;;;;;;;19.25;14.85;;;12.80;95.50;;;;;;5075244;28;20040;-80
2022/10/17 04:22:24;;;;;;;23.23;19.42;;;12.80;95.30;;;;;;5058468;28;20039;-80
2022/10/17 04:24:49;;;;;;;23.98;18.80;;;12.80;95.40;;;;;;5075196;28;20102;-78
2022/10/17 04:27:15;;;;;;;27.23;19.17;;;12.80;95.40;;;;;;5058681;28;20040;-78
2022/10/17 04:29:41;;;;;;;27.58;19.38;;;12.90;95.70;;;;;;5075254;28;20444;-79
2022/10/17 04:32:06;;;;;;;17.30;15.38;;;13.00;96.10;;;;;;5058390;28;20036;-79
2022/10/17 04:34:32;;;;;;;23.48;18.15;;;13.00;96.00;;;;;;5074578;28;20068;-78
2022/10/17 04:36:58;;;;;;;24.00;20.55;;;13.00;96.10;;;;;;5074651;28;20079;-79
2022/10/17 04:39:23;;;;;;;24.83;20.27;;;13.10;96.10;;;;;;5074577;28;20036;-79
2022/10/17 04:41:49;;;;;;;26.25;20.70;;;13.10;95.40;;;;;;5057931;28;20090;-78
2022/10/17 04:44:15;;;;;;;26.65;21.10;;;13.20;95.80;;;;;;5074793;28;20127;-76
2022/10/17 04:46:41;;;;;;;25.60;22.48;;;13.20;96.50;;;;;;5058339;28;20040;-82
2022/10/17 04:49:07;;;;;;;31.27;21.27;;;13.20;96.40;;;;;;5041166;28;20052;-77
2022/10/17 04:51:33;;;;;;;24.55;18.02;;;13.20;96.20;;;;;;5074562;28;20075;-77
2022/10/17 04:53:58;;;;;;;27.02;21.60;;;13.30;96.40;;;;;;5074448;28;20049;-78
2022/10/17 04:56:25;;;;;;;28.98;21.00;;;13.30;96.20;;;;;;5056940;28;20033;-76
2022/10/17 04:58:51;;;;;;;29.42;22.48;;;13.30;96.40;;;;;;5074523;28;20036;-77
2022/10/17 05:01:19;;;;;;;28.58;23.35;;;13.40;96.40;;;;;;5074486;28;20047;-79
2022/10/17 05:03:45;;;;;;;21.77;16.77;;;13.40;96.60;;;;;;5074517;28;20049;-79
2022/10/17 05:06:13;;;;;;;25.83;21.55;;;13.40;96.40;;;;;;5074722;28;20063;-77
2022/10/17 05:08:39;;;;;;;29.00;24.05;;;13.40;96.20;;;;;;5074352;28;20504;-78
2022/10/17 05:11:18;;;;;;;24.05;19.80;;;13.40;96.40;;;;;;5074196;28;20052;-76
2022/10/17 05:13:44;;;;;;;32.88;22.27;;;13.40;96.10;;;;;;5057534;28;20101;-79
2022/10/17 05:16:10;;;;;;;23.50;19.50;;;13.40;96.40;;;;;;5074278;28;20037;-77
2022/10/17 05:18:35;;;;;;;30.60;22.83;;;13.50;96.40;;;;;;5074292;28;20037;-78
2022/10/17 05:21:03;;;;;;;26.17;21.42;;;13.50;96.20;;;;;;5073957;28;20484;-79
2022/10/17 05:23:29;;;;;;;26.38;20.17;;;13.50;96.60;;;;;;5073957;28;20040;-76
2022/10/17 05:25:55;;;;;;;28.98;23.30;;;13.50;96.30;;;;;;5057649;28;20055;-78
2022/10/17 05:28:22;;;;;;;27.92;21.08;;;13.50;96.10;;;;;;5074313;28;20044;-74
2022/10/17 05:30:47;;;;;;;25.40;21.83;;;13.50;95.90;;;;;;5057302;28;20480;-80
2022/10/17 05:33:13;;;;;;;25.33;20.02;;;13.50;96.30;;;;;;5057188;28;20049;-75
2022/10/17 05:35:39;;;;;;;26.42;20.55;;;13.50;96.20;;;;;;5040460;28;20083;-76
2022/10/17 05:38:05;;;;;;;33.42;21.73;;;13.60;95.90;;;;;;5057078;28;20028;-76
2022/10/17 05:40:30;;;;;;;24.05;20.98;;;13.60;95.90;;;;;;5040179;28;20090;-75
2022/10/17 05:42:56;;;;;;;26.42;20.00;;;13.70;96.10;;;;;;5040147;28;20048;-76
2022/10/17 05:45:22;;;;;;;24.67;19.67;;;13.80;96.10;;;;;;5056821;28;20036;-75
2022/10/17 05:47:47;;;;;;;25.55;19.35;;;13.80;96.20;;;;;;5057074;28;20037;-78
2022/10/17 05:50:13;;;;;;;24.58;19.55;;;13.90;96.10;;;;;;5040114;28;20114;-77
2022/10/17 05:52:39;;;;;;;21.25;16.17;;;13.90;96.20;;;;;;5023783;28;20066;-76
2022/10/17 05:55:05;;;;;;;23.38;18.95;;;14.00;95.80;;;;;;5073146;28;20477;-77
2022/10/17 05:57:31;;;;;;;20.92;16.60;;;14.00;96.20;;;;;;5056910;28;20037;-76
2022/10/17 05:59:57;;;;;;;22.33;18.77;;;14.00;96.10;;;;;;5073347;28;20144;-78
2022/10/17 06:02:22;;;;;;;23.52;19.65;;;14.10;96.70;;;;;;5073440;28;20059;-76
2022/10/17 06:04:49;;;;;;;24.58;18.77;;;14.20;96.90;;;;;;5073382;28;20366;-77
2022/10/17 06:07:15;;;;;;;20.85;17.35;;;14.20;96.80;;;;;;5056345;28;20119;-77
2022/10/17 06:09:41;;;;;;;23.95;18.10;;;14.20;97.00;;;;;;5072789;28;20662;-74
2022/10/17 06:12:07;;;;;;;27.15;19.38;;;14.30;96.90;;;;;;5056202;28;20178;-80
2022/10/17 06:14:33;;;;;;;25.23;17.63;;;14.30;97.20;;;;;;5039218;28;20123;-75
2022/10/17 06:16:58;;;;;;;25.95;18.10;;;14.30;96.70;;;;;;5056115;28;20129;-76
2022/10/17 06:19:24;;;;;;;23.48;19.27;;;14.30;96.60;;;;;;5073410;28;20428;-79
2022/10/17 06:21:50;;;;;;;22.45;18.05;;;14.30;96.90;;;;;;5056175;28;20142;-78
2022/10/17 06:24:16;;;;;;;24.95;17.58;;;14.40;97.10;;;;;;5072925;28;20044;-76
2022/10/17 06:26:42;;;;;;;23.63;18.17;;;14.40;96.60;;;;;;5072555;28;20048;-79
2022/10/17 06:29:11;;;;;;;20.17;17.70;;;14.50;96.90;;;;;;5072734;28;20040;-79
2022/10/17 06:31:37;;;;;;;19.10;16.70;;;14.50;96.80;;;;;;5055869;28;20507;-76
2022/10/17 06:34:03;;;;;;;19.40;17.27;;;14.50;96.50;;;;;;5039538;28;20040;-75
2022/10/17 06:36:29;;;;;;;19.55;16.83;;;14.50;96.40;;;;;;5056020;28;20538;-75
2022/10/17 06:38:55;;;;;;;26.52;16.85;;;14.50;96.50;;;;;;5055870;28;20394;-77
2022/10/17 06:41:20;;;;;;;21.15;18.17;;;14.50;96.30;;;;;;5056190;28;20036;-76
2022/10/17 06:43:47;;;;;;;24.15;15.63;;;14.50;96.40;;;;;;5072315;28;20401;-74
2022/10/17 06:46:15;;;;;;;22.25;16.08;;;14.60;96.70;;;;;;5072437;28;20127;-75
2022/10/17 06:48:41;;;;;;;20.23;15.45;;;14.60;96.80;;;;;;5072124;28;20481;-78
2022/10/17 06:51:10;;;;;;;21.13;16.65;;;14.60;97.00;;;;;;5055234;28;20063;-79
2022/10/17 06:53:37;;;;;;;22.33;16.98;;;14.60;96.80;;;;;;5055635;28;20047;-76
2022/10/17 06:56:04;;;;;;;22.88;16.48;;;14.70;96.80;;;;;;5071802;28;20170;-78
2022/10/17 06:58:33;;;;;;;19.63;15.07;;;14.70;97.10;;;;;;5054982;28;20473;-77
2022/10/17 07:01:07;;;;;;;19.95;16.25;;;14.80;97.10;;;;;;5065814;28;20044;-78
2022/10/17 07:03:33;;;;;;;20.67;15.82;;;14.80;96.80;;;;;;5056384;28;20040;-76
2022/10/17 07:05:59;;;;;;;16.65;14.60;;;14.80;97.00;;;;;;5051322;28;20048;-78
2022/10/17 07:08:25;;;;;;;18.35;14.45;;;14.80;97.00;;;;;;5035026;28;20049;-77
2022/10/17 07:10:51;;;;;;;20.33;15.88;;;14.90;97.00;;;;;;5018547;28;20051;-76
2022/10/17 07:13:18;;;;;;;18.00;13.70;;;14.90;97.10;;;;;;5051803;28;20045;-79
2022/10/17 07:15:44;;;;;;;19.20;14.90;;;14.90;96.90;;;;;;5035097;28;20087;-77
2022/10/17 07:18:10;;;;;;;19.45;15.30;;;15.00;96.90;;;;;;5051131;28;20055;-78
2022/10/17 07:20:36;;;;;;;16.48;13.73;;;15.00;96.60;;;;;;5051476;28;20487;-78
2022/10/17 07:23:02;;;;;;;19.27;15.00;;;15.00;96.50;;;;;;5034949;28;20083;-77
2022/10/17 07:25:28;;;;;;;19.27;13.65;;;15.00;96.40;;;;;;5051828;28;20469;-78
2022/10/17 07:27:54;;;;;;;20.55;14.60;;;15.10;96.50;;;;;;5034921;28;20094;-75
2022/10/17 07:30:20;;;;;;;19.73;14.38;;;15.10;96.60;;;;;;5034886;28;20036;-77
2022/10/17 07:32:46;;;;;;;16.23;13.70;;;15.20;96.70;;;;;;5051340;28;20512;-80
2022/10/17 07:35:12;;;;;;;17.40;13.63;;;15.20;96.50;;;;;;5018326;28;20128;-79
2022/10/17 07:37:38;;;;;;;18.25;13.73;;;15.20;96.60;;;;;;5051370;28;20124;-78
2022/10/17 07:40:06;;;;;;;16.27;12.80;;;15.20;96.60;;;;;;5051424;28;20098;-80
2022/10/17 07:42:33;;;;;;;15.75;13.60;;;15.30;96.60;;;;;;5034716;28;20075;-77
2022/10/17 07:44:58;;;;;;;18.13;13.32;;;15.30;96.50;;;;;;5048525;28;20468;-77
2022/10/17 07:47:24;;;;;;;17.15;13.65;;;15.40;96.50;;;;;;5036258;28;20067;-77
2022/10/17 07:49:50;;;;;;;15.07;13.00;;;15.40;96.40;;;;;;5054195;28;20059;-78
2022/10/17 07:52:16;;;;;;;16.25;12.68;;;15.40;96.30;;;;;;5054069;28;20072;-78
2022/10/17 07:54:42;;;;;;;17.17;12.77;;;15.50;96.30;;;;;;5053437;28;20044;-77
2022/10/17 07:57:09;;;;;;;14.07;11.35;;;15.50;96.30;;;;;;5054111;28;20073;-77
2022/10/17 07:59:36;;;;;;;18.75;13.27;;;15.50;96.20;;;;;;5057000;28;20044;-78
2022/10/17 08:02:02;;;;;;;16.35;12.27;;;15.50;96.20;;;;;;5054877;28;20053;-79
2022/10/17 08:04:28;;;;;;;14.77;12.02;;;15.50;96.10;;;;;;5050389;28;20079;-77
2022/10/17 08:06:54;;;;;;;14.27;12.13;;;15.60;96.10;;;;;;5039610;28;20072;-78
2022/10/17 08:09:20;;;;;;;17.48;13.23;;;15.60;96.00;;;;;;5037880;28;20048;-75
2022/10/17 08:11:46;;;;;;;13.63;11.98;;;15.60;96.00;;;;;;5053785;28;20443;-79
2022/10/17 08:14:13;;;;;;;16.42;11.52;;;15.60;96.00;;;;;;5057008;28;20044;-76
2022/10/17 08:16:42;;;;;;;16.17;12.52;;;15.70;96.00;;;;;;5053389;28;20040;-77
2022/10/17 08:19:10;;;;;;;15.15;12.40;;;15.70;96.10;;;;;;5054588;28;20048;-77
2022/10/17 08:21:36;;;;;;;30.73;26.02;;;15.70;96.00;;;;;;5034253;28;20409;-78
2022/10/17 08:24:03;;;;;;;19.27;15.18;;;15.70;96.00;;;;;;5051014;28;20045;-75
2022/10/17 08:26:29;;;;;;;18.92;15.10;;;15.80;96.00;;;;;;5055799;28;20056;-77
2022/10/17 08:28:55;;;;;;;18.67;16.67;;;15.80;96.00;;;;;;5051310;28;20401;-81
2022/10/17 08:31:21;;;;;;;20.20;17.23;;;15.90;95.90;;;;;;5039649;28;20040;-77
2022/10/17 08:33:48;;;;;;;23.17;18.15;;;15.90;95.90;;;;;;5057278;28;20060;-77
2022/10/17 08:36:16;;;;;;;22.67;19.13;;;15.90;95.80;;;;;;5058666;28;20036;-79
2022/10/17 08:38:43;;;;;;;16.40;14.60;;;15.90;95.90;;;;;;5057947;28;20037;-79
2022/10/17 08:41:37;;;;;;;18.17;14.63;;;16.00;95.80;;;;;;5055838;28;20622;-77
2022/10/17 08:44:12;;;;;;;19.08;14.45;;;16.00;95.80;;;;;;5054662;28;20052;-81
2022/10/17 08:46:41;;;;;;;17.52;12.65;;;16.00;95.90;;;;;;5039262;28;20056;-78
2022/10/17 08:49:16;;;;;;;17.60;14.73;;;16.00;95.80;;;;;;5055948;28;20531;-75
2022/10/17 08:51:51;;;;;;;17.77;12.73;;;16.00;95.70;;;;;;5042625;28;20444;-80
2022/10/17 08:54:30;;;;;;;14.00;11.13;;;16.00;95.90;;;;;;5054832;28;20059;-76
2022/10/17 08:56:56;;;;;;;12.98;10.52;;;16.10;96.20;;;;;;5058473;28;20044;-73
2022/10/17 08:59:28;;;;;;;12.95;9.57;;;16.10;96.10;;;;;;5038875;28;20048;-78
2022/10/17 09:02:10;;;;;;;13.32;11.10;;;16.20;95.70;;;;;;5058030;28;20082;-72
2022/10/17 09:05:00;;;;;;;12.52;11.23;;;16.30;95.70;;;;;;5055264;28;20052;-77
2022/10/17 09:08:05;;;;;;;11.98;10.43;;;16.30;95.90;;;;;;5061253;28;20289;-73
2022/10/17 09:10:41;;;;;;;15.23;11.25;;;16.30;95.40;;;;;;5060622;28;20102;-76
2022/10/17 09:13:29;;;;;;;15.00;10.45;;;16.40;95.30;;;;;;5056820;28;20509;-77
2022/10/17 09:16:22;;;;;;;14.80;11.27;;;16.40;95.70;;;;;;5040759;28;20061;-77
2022/10/17 09:19:03;;;;;;;16.70;11.50;;;16.40;95.40;;;;;;5055974;28;20040;-77
2022/10/17 09:21:42;;;;;;;15.35;12.82;;;16.30;95.50;;;;;;5055261;28;20045;-78
2022/10/17 09:24:24;;;;;;;18.27;15.07;;;16.30;95.90;;;;;;5051866;28;20049;-74
2022/10/17 09:26:51;;;;;;;23.67;17.45;;;16.30;95.80;;;;;;5059165;28;20544;-75
2022/10/17 09:29:27;;;;;;;33.92;22.13;;;16.40;95.60;;;;;;5040707;28;20040;-74
2022/10/17 09:32:23;;;;;;;17.10;13.35;;;16.30;95.90;;;;;;5038288;28;20083;-79
2022/10/17 09:34:52;;;;;;;18.00;12.05;;;16.30;96.20;;;;;;5046847;28;20054;-76
2022/10/17 09:37:19;;;;;;;16.88;15.05;;;16.30;96.20;;;;;;5057456;28;20048;-76
2022/10/17 09:39:45;;;;;;;17.50;12.02;;;16.30;95.80;;;;;;5053640;28;20068;-74
2022/10/17 09:42:20;;;;;;;17.00;12.63;;;16.30;96.30;;;;;;5057762;28;20052;-74
2022/10/17 09:45:18;;;;;;;16.73;14.95;;;16.30;96.40;;;;;;5054144;28;20135;-78
2022/10/17 09:47:52;;;;;;;15.00;11.95;;;16.20;96.10;;;;;;5060039;28;20044;-77
2022/10/17 09:50:30;;;;;;;17.83;11.57;;;16.20;96.20;;;;;;5058720;28;20505;-76
2022/10/17 09:53:01;;;;;;;15.65;12.32;;;16.20;96.30;;;;;;5052810;28;20456;-77
2022/10/17 09:55:44;;;;;;;16.83;12.98;;;16.20;96.50;;;;;;5055827;28;20044;-78
2022/10/17 09:58:10;;;;;;;16.05;12.70;;;16.20;96.80;;;;;;5041870;28;20186;-78
2022/10/17 10:00:39;;;;;;;21.48;14.23;;;16.20;96.70;;;;;;5042030;28;20049;-76
2022/10/17 10:03:21;;;;;;;19.50;12.32;;;16.10;96.80;;;;;;5054027;28;20524;-77
2022/10/17 10:06:04;;;;;;;17.00;13.23;;;16.10;97.00;;;;;;5040816;28;20397;-76
2022/10/17 10:08:34;;;;;;;17.25;13.90;;;16.00;97.10;;;;;;5059393;28;20606;-76
2022/10/17 10:11:09;;;;;;;17.52;13.57;;;16.00;97.00;;;;;;5055871;28;20053;-75
2022/10/17 10:13:35;;;;;;;19.52;13.95;;;16.00;97.10;;;;;;5035947;28;20084;-76
2022/10/17 10:16:29;;;;;;;20.77;14.25;;;16.00;97.30;;;;;;5052687;28;20108;-79
2022/10/17 10:18:55;;;;;;;16.52;13.25;;;16.00;97.20;;;;;;5052853;28;20322;-78
2022/10/17 10:21:23;;;;;;;17.40;13.88;;;16.00;97.30;;;;;;5053323;28;20144;-74
2022/10/17 10:24:10;;;;;;;17.90;14.02;;;16.00;97.30;;;;;;5053946;28;20439;-74
2022/10/17 10:26:46;;;;;;;16.88;14.18;;;16.00;97.00;;;;;;5055033;28;20504;-78
2022/10/17 10:29:33;;;;;;;15.65;13.50;;;16.10;97.20;;;;;;5058628;28;20394;-76
2022/10/17 10:32:19;;;;;;;19.33;13.07;;;16.10;97.40;;;;;;5058121;28;20133;-76
2022/10/17 10:35:04;;;;;;;17.52;14.00;;;16.10;97.20;;;;;;5053837;28;20037;-79
2022/10/17 10:37:37;;;;;;;16.77;14.57;;;16.10;97.40;;;;;;5037777;28;20052;-78
2022/10/17 10:40:36;;;;;;;21.67;15.40;;;16.10;97.30;;;;;;5057018;28;20049;-75
2022/10/17 10:43:03;;;;;;;23.55;15.52;;;16.10;97.30;;;;;;5027367;28;20513;-76
2022/10/17 10:45:35;;;;;;;25.48;14.30;;;16.10;97.40;;;;;;5036603;28;20048;-76
2022/10/17 10:48:18;;;;;;;21.58;17.40;;;16.10;97.30;;;;;;5037206;28;20111;-78
2022/10/17 10:50:46;;;;;;;20.40;15.45;;;16.10;97.30;;;;;;5039733;28;20060;-75
2022/10/17 10:53:50;;;;;;;21.55;16.02;;;16.20;97.30;;;;;;5051954;28;20053;-78
2022/10/17 10:56:24;;;;;;;22.55;16.20;;;16.20;97.60;;;;;;5051228;28;20044;-74
2022/10/17 10:59:02;;;;;;;22.52;16.88;;;16.20;97.40;;;;;;5057358;28;20045;-74
2022/10/17 11:01:34;;;;;;;22.48;16.70;;;16.20;97.60;;;;;;5054397;28;20052;-76
2022/10/17 11:04:19;;;;;;;21.02;16.38;;;16.20;97.70;;;;;;5050833;28;20052;-75
2022/10/17 11:06:46;;;;;;;25.63;17.40;;;16.20;97.70;;;;;;5053185;28;20400;-75
2022/10/17 11:09:33;;;;;;;20.60;14.88;;;16.10;97.60;;;;;;5051616;28;20057;-76
2022/10/17 11:12:21;;;;;;;21.77;14.93;;;16.10;97.70;;;;;;5057650;28;20046;-74
2022/10/17 11:15:13;;;;;;;21.90;16.15;;;16.20;97.40;;;;;;5055838;28;20047;-76
2022/10/17 11:17:44;;;;;;;21.42;16.88;;;16.10;97.50;;;;;;5055470;28;20086;-76
2022/10/17 11:20:39;;;;;;;20.25;14.48;;;16.20;97.30;;;;;;5056009;28;20565;-78
2022/10/17 11:23:20;;;;;;;34.13;21.92;;;16.20;97.50;;;;;;5039687;28;20049;-78
2022/10/17 11:25:49;;;;;;;23.38;19.70;;;16.10;97.40;;;;;;5053919;28;20045;-75
2022/10/17 11:28:18;;;;;;;19.23;14.57;;;16.20;97.50;;;;;;5053587;28;20139;-76
2022/10/17 11:31:12;;;;;;;23.50;16.70;;;16.10;97.40;;;;;;5056864;28;20123;-79
2022/10/17 11:33:43;;;;;;;36.20;26.52;;;16.10;97.20;;;;;;5041630;28;20544;-76
2022/10/17 11:36:10;;;;;;;59.17;43.25;;;16.20;97.20;;;;;;5057187;28;20048;-75
2022/10/17 11:38:58;;;;;;;55.83;38.42;;;16.10;97.30;;;;;;5036795;28;20075;-74
2022/10/17 11:41:45;;;;;;;73.72;52.63;;;16.10;97.30;;;;;;5052677;28;20171;-73
2022/10/17 11:44:39;;;;;;;62.50;44.55;;;16.10;97.40;;;;;;5052465;28;20048;-77
2022/10/17 11:47:30;;;;;;;27.85;21.30;;;16.10;97.40;;;;;;5035228;28;20060;-76
2022/10/17 11:50:25;;;;;;;23.55;18.42;;;16.10;97.40;;;;;;5055161;28;20926;-78
2022/10/17 11:53:01;;;;;;;27.08;19.90;;;16.20;97.60;;;;;;5052559;28;20497;-77
2022/10/17 11:55:31;;;;;;;17.08;14.25;;;16.30;97.70;;;;;;5051857;28;20045;-77
2022/10/17 11:58:12;;;;;;;20.17;13.82;;;16.30;97.40;;;;;;5036817;28;20527;-79
2022/10/17 12:01:03;;;;;;;18.98;15.02;;;16.40;97.50;;;;;;5038006;28;20102;-78
2022/10/17 12:03:47;;;;;;;21.48;12.93;;;16.40;97.40;;;;;;5054269;28;20075;-81
2022/10/17 12:06:18;;;;;;;18.50;13.55;;;16.40;97.50;;;;;;5059765;28;20706;-78
2022/10/17 12:08:49;;;;;;;14.40;12.27;;;16.40;97.30;;;;;;5058752;28;20509;-77
2022/10/17 12:11:28;;;;;;;21.25;15.63;;;16.40;97.30;;;;;;5058323;28;20068;-78
2022/10/17 12:13:55;;;;;;;12.48;10.75;;;16.40;97.20;;;;;;5054878;28;20120;-79
2022/10/17 12:16:22;;;;;;;12.75;8.25;;;16.30;97.10;;;;;;5056125;28;20489;-76
2022/10/17 12:19:22;;;;;;;14.27;11.35;;;16.40;97.00;;;;;;5057709;28;20048;-75
2022/10/17 12:22:02;;;;;;;16.15;9.60;;;16.30;96.90;;;;;;5025497;28;20063;-76
2022/10/17 12:24:41;;;;;;;13.10;9.20;;;16.30;96.60;;;;;;5056117;28;20045;-76
2022/10/17 12:27:32;;;;;;;11.98;7.35;;;16.30;96.60;;;;;;5058686;28;20044;-77
2022/10/17 12:30:01;;;;;;;11.10;8.73;;;16.30;96.30;;;;;;5055681;28;20048;-76
2022/10/17 12:32:27;;;;;;;12.27;9.43;;;16.20;96.20;;;;;;5041533;28;20044;-74
2022/10/17 12:34:55;;;;;;;13.45;9.18;;;16.20;96.30;;;;;;5054691;28;20056;-78
2022/10/17 12:37:52;;;;;;;17.55;10.02;;;16.20;96.40;;;;;;5056397;28;20044;-78
2022/10/17 12:40:36;;;;;;;11.10;9.32;;;16.20;96.40;;;;;;5058880;28;20193;-75
2022/10/17 12:43:27;;;;;;;12.65;8.32;;;16.20;96.20;;;;;;5039100;28;20048;-75
2022/10/17 12:45:57;;;;;;;15.68;9.35;;;16.20;96.30;;;;;;5055757;28;20431;-76
2022/10/17 12:48:40;;;;;;;13.00;8.73;;;16.20;96.20;;;;;;5060345;28;20044;-78
2022/10/17 12:51:09;;;;;;;11.98;8.32;;;16.20;96.30;;;;;;5058647;28;20130;-78
2022/10/17 12:53:56;;;;;;;15.82;10.20;;;16.20;96.30;;;;;;5055769;28;20087;-76
2022/10/17 12:56:30;;;;;;;16.02;11.98;;;16.10;96.50;;;;;;5059422;28;20150;-80